Terminal Aerodrome Forecast
Issued by NWS Cleveland, OH

Home | Current Version | Previous Version | Text Only | Print | Product List | Glossary On
Versions: 1 2 3 4 5 6 7 8 9 10 11 12 13 14 15
128
FTUS41 KCLE 221141
TAFMFD
TAF
KMFD 221141Z 2212/2312 22008KT P6SM FEW040 SCT200
     FM221300 22011KT P6SM VCTS SCT040CB BKN200
     FM221500 23010KT P6SM SCT040 BKN110
     FM221800 24013KT P6SM -TSRA SCT040CB BKN090
     FM230000 29011KT P6SM BKN025 BKN040
     FM230200 30010KT P6SM SCT060
     FM230600 30005KT P6SM SKC=

USA.gov is the U.S. government's official web portal to all federal, state and local government web resources and services.